createdAt,value
2017-11-09T00:02:17.487Z,62.50
2017-11-09T00:04:51.009Z,62.00
2017-11-09T00:07:19.856Z,61.80
2017-11-09T00:09:47.932Z,61.80
2017-11-09T00:12:16.027Z,61.70
2017-11-09T00:14:44.098Z,61.90
2017-11-09T00:17:12.170Z,62.00
2017-11-09T00:19:41.016Z,61.70
2017-11-09T00:22:10.050Z,61.40
2017-11-09T00:24:38.247Z,61.40
2017-11-09T00:27:07.127Z,61.40
2017-11-09T00:29:35.964Z,61.50
2017-11-09T00:32:04.049Z,61.50
2017-11-09T00:34:32.132Z,61.70
2017-11-09T00:37:00.220Z,61.80
2017-11-09T00:39:28.288Z,61.70
2017-11-09T00:41:56.369Z,61.60
2017-11-09T00:44:24.452Z,61.60
2017-11-09T00:46:52.512Z,61.80
2017-11-09T00:49:20.593Z,62.40
2017-11-09T00:51:48.669Z,62.20
2017-11-09T00:54:16.745Z,62.70
2017-11-09T00:56:45.604Z,62.20
2017-11-09T00:59:13.712Z,62.10
2017-11-09T01:01:42.562Z,60.90
2017-11-09T01:04:10.637Z,60.80
2017-11-09T01:06:38.736Z,60.60
2017-11-09T01:09:06.809Z,61.20
2017-11-09T01:11:34.890Z,61.50
2017-11-09T01:14:02.957Z,61.80
2017-11-09T01:16:31.034Z,62.10
2017-11-09T01:18:59.106Z,63.00
2017-11-09T01:21:27.180Z,62.70
2017-11-09T01:23:56.029Z,64.00
2017-11-09T01:26:24.120Z,63.20
2017-11-09T01:28:52.181Z,63.50
2017-11-09T01:31:20.261Z,63.10
2017-11-09T01:33:48.328Z,63.70
2017-11-09T01:36:16.428Z,64.10
2017-11-09T01:38:44.725Z,63.80
2017-11-09T01:41:13.556Z,63.70
2017-11-09T01:43:42.405Z,63.80
2017-11-09T01:46:11.265Z,64.20
2017-11-09T01:48:39.341Z,64.20
2017-11-09T01:51:07.411Z,65.00
2017-11-09T01:53:35.493Z,65.70
2017-11-09T01:56:03.573Z,65.80
2017-11-09T01:58:31.658Z,65.00
2017-11-09T02:01:00.522Z,66.00
2017-11-09T02:03:28.593Z,65.90
2017-11-09T02:05:56.677Z,67.10
2017-11-09T02:08:24.749Z,67.00
2017-11-09T02:10:52.821Z,67.20
2017-11-09T02:13:20.906Z,66.10
2017-11-09T02:15:49.772Z,65.90
2017-11-09T02:18:17.845Z,65.80
2017-11-09T02:20:45.916Z,65.10
2017-11-09T02:23:13.989Z,64.50
2017-11-09T02:25:42.076Z,64.30
2017-11-09T02:28:10.940Z,63.70
2017-11-09T02:30:39.020Z,63.60
2017-11-09T02:33:07.103Z,63.60
2017-11-09T02:35:35.191Z,63.70
2017-11-09T02:38:04.033Z,62.90
2017-11-09T02:40:32.881Z,62.50
2017-11-09T02:43:01.717Z,62.00
2017-11-09T02:45:29.805Z,61.90
2017-11-09T02:47:57.873Z,61.30
2017-11-09T02:50:26.022Z,61.10
2017-11-09T02:52:54.096Z,60.90
2017-11-09T02:55:22.183Z,60.40
2017-11-09T02:57:50.287Z,59.40
2017-11-09T03:00:18.377Z,59.80
2017-11-09T03:02:47.233Z,59.20
2017-11-09T03:05:15.301Z,59.20
2017-11-09T03:07:43.394Z,59.50
2017-11-09T03:10:11.457Z,59.40
2017-11-09T03:12:39.540Z,60.00
2017-11-09T03:15:07.618Z,60.40
2017-11-09T03:17:35.692Z,61.10
2017-11-09T03:20:03.761Z,62.30
2017-11-09T03:22:31.840Z,62.60
2017-11-09T03:24:59.917Z,63.50
2017-11-09T03:27:28.005Z,62.50
2017-11-09T03:29:56.858Z,63.10
2017-11-09T03:32:24.936Z,63.00
2017-11-09T03:34:53.009Z,63.30
2017-11-09T03:37:21.089Z,63.10
2017-11-09T03:39:49.162Z,62.50
2017-11-09T03:42:17.238Z,62.10
2017-11-09T03:44:45.317Z,62.00
2017-11-09T03:47:14.155Z,61.00
2017-11-09T03:49:42.231Z,61.00
2017-11-09T03:52:10.305Z,61.10
2017-11-09T03:54:38.392Z,60.80
2017-11-09T03:57:06.461Z,60.20
2017-11-09T03:59:34.544Z,60.30
2017-11-09T04:02:02.635Z,59.90
2017-11-09T04:04:30.717Z,59.70
2017-11-09T04:06:59.568Z,60.40
2017-11-09T04:09:27.654Z,60.30
2017-11-09T04:11:55.728Z,60.10
2017-11-09T04:14:23.907Z,60.10
2017-11-09T04:16:51.986Z,60.00
2017-11-09T04:19:20.065Z,59.00
2017-11-09T04:21:48.144Z,58.70
2017-11-09T04:24:16.978Z,58.90
2017-11-09T04:26:45.061Z,58.90
2017-11-09T04:29:13.179Z,58.90
2017-11-09T04:31:42.034Z,60.20
2017-11-09T04:34:10.125Z,60.20
2017-11-09T04:36:38.224Z,60.90
2017-11-09T04:39:07.061Z,61.60
2017-11-09T04:41:35.145Z,61.50
2017-11-09T04:44:03.236Z,61.70
2017-11-09T04:46:31.321Z,61.70
2017-11-09T04:49:00.180Z,62.60
2017-11-09T04:51:28.257Z,62.50
2017-11-09T04:53:56.389Z,62.70
2017-11-09T04:56:24.499Z,62.90
2017-11-09T04:58:52.576Z,62.70
2017-11-09T05:01:20.649Z,62.10
2017-11-09T05:03:48.733Z,61.90
2017-11-09T05:06:16.804Z,62.10
2017-11-09T05:08:44.892Z,62.10
2017-11-09T05:11:12.965Z,62.10
2017-11-09T05:13:41.037Z,61.80
2017-11-09T05:16:09.108Z,61.60
2017-11-09T05:18:37.182Z,61.60
2017-11-09T05:21:05.258Z,61.80
2017-11-09T05:23:34.107Z,61.50
2017-11-09T05:26:02.190Z,61.40
2017-11-09T05:28:30.264Z,61.20
2017-11-09T05:30:58.332Z,61.10
2017-11-09T05:33:26.402Z,61.10
2017-11-09T05:35:54.486Z,61.20
2017-11-09T05:38:22.554Z,61.20
2017-11-09T05:40:50.635Z,61.50
2017-11-09T05:43:18.701Z,61.00
2017-11-09T05:45:46.792Z,60.80
2017-11-09T05:48:14.865Z,60.70
2017-11-09T05:50:42.928Z,60.80
2017-11-09T05:53:11.016Z,60.60
2017-11-09T05:55:39.077Z,59.90
2017-11-09T05:58:07.244Z,60.10
2017-11-09T06:00:35.324Z,60.00
2017-11-09T06:03:03.410Z,60.40
2017-11-09T06:05:31.482Z,60.70
2017-11-09T06:07:59.730Z,60.80
2017-11-09T06:10:27.797Z,61.00
2017-11-09T06:12:55.890Z,61.20
2017-11-09T06:15:23.974Z,61.80
2017-11-09T06:17:52.129Z,61.50
2017-11-09T06:20:20.327Z,61.50
2017-11-09T06:22:48.449Z,62.10
2017-11-09T06:25:26.421Z,61.70
2017-11-09T06:27:55.293Z,61.60
2017-11-09T06:30:23.373Z,61.60
2017-11-09T06:32:52.200Z,61.30
2017-11-09T06:35:20.316Z,61.20
2017-11-09T06:37:48.395Z,61.20
2017-11-09T06:40:17.292Z,61.40
2017-11-09T06:42:45.377Z,61.30
2017-11-09T06:45:14.310Z,61.50
2017-11-09T06:47:43.154Z,61.20
2017-11-09T06:50:11.218Z,61.10
2017-11-09T06:52:39.292Z,61.40
2017-11-09T06:55:07.444Z,62.40
2017-11-09T06:57:35.524Z,62.50
2017-11-09T07:00:03.610Z,62.10
2017-11-09T07:02:31.685Z,61.70
2017-11-09T07:04:59.834Z,61.20
2017-11-09T07:07:27.914Z,61.40
2017-11-09T07:09:55.976Z,62.00
2017-11-09T07:12:24.076Z,61.40
2017-11-09T07:14:52.137Z,60.70
2017-11-09T07:17:20.213Z,60.10
2017-11-09T07:19:48.312Z,61.00
2017-11-09T07:22:17.185Z,61.20
2017-11-09T07:24:45.257Z,61.20
2017-11-09T07:27:13.339Z,61.50
2017-11-09T07:29:42.181Z,61.60
2017-11-09T07:32:11.023Z,61.00
2017-11-09T07:34:39.861Z,60.70
2017-11-09T07:37:07.939Z,60.70
2017-11-09T07:39:36.021Z,60.30
2017-11-09T07:42:04.121Z,60.20
2017-11-09T07:44:32.197Z,61.20
2017-11-09T07:47:00.278Z,62.10
2017-11-09T07:49:29.128Z,61.00
2017-11-09T07:51:57.203Z,60.90
2017-11-09T07:54:25.280Z,61.00
2017-11-09T07:56:53.347Z,61.00
2017-11-09T07:59:21.440Z,61.80
2017-11-09T08:01:49.533Z,62.40
2017-11-09T08:04:18.374Z,63.40
2017-11-09T08:06:46.453Z,63.30
2017-11-09T08:09:14.526Z,63.20
2017-11-09T08:11:42.605Z,62.30
2017-11-09T08:14:10.889Z,62.20
2017-11-09T08:16:38.967Z,62.00
2017-11-09T08:19:07.036Z,61.70
2017-11-09T08:21:35.113Z,61.00
2017-11-09T08:24:05.668Z,60.70
2017-11-09T08:26:36.185Z,59.40
2017-11-09T08:29:07.784Z,58.70
2017-11-09T08:31:40.363Z,58.70
2017-11-09T08:34:08.445Z,57.80
2017-11-09T08:36:36.520Z,57.80
2017-11-09T08:39:04.599Z,57.80
2017-11-09T08:41:32.685Z,57.80
2017-11-09T08:44:00.793Z,57.80
2017-11-09T08:46:29.641Z,58.80
2017-11-09T08:48:57.712Z,58.80
2017-11-09T08:51:25.788Z,59.00
2017-11-09T08:53:53.870Z,58.70
2017-11-09T08:56:21.945Z,58.40
2017-11-09T08:58:50.021Z,58.80
2017-11-09T09:01:18.113Z,57.80
2017-11-09T09:03:46.230Z,57.70
2017-11-09T09:06:14.311Z,57.70
2017-11-09T09:08:42.397Z,57.70
2017-11-09T09:11:10.469Z,56.80
2017-11-09T09:13:38.541Z,56.90
2017-11-09T09:16:06.616Z,57.30
2017-11-09T09:18:34.689Z,56.80
2017-11-09T09:21:05.252Z,56.10
2017-11-09T09:23:33.312Z,55.90
2017-11-09T09:26:03.256Z,55.10
2017-11-09T09:28:35.433Z,53.80
2017-11-09T09:31:03.544Z,53.80
2017-11-09T09:33:37.179Z,53.00
2017-11-09T09:36:26.577Z,52.60
2017-11-09T09:38:59.190Z,53.30
2017-11-09T09:41:27.277Z,53.20
2017-11-09T09:43:55.370Z,53.30
2017-11-09T09:46:23.457Z,51.50
2017-11-09T09:48:52.313Z,52.60
2017-11-09T09:51:20.410Z,52.70
2017-11-09T09:53:48.477Z,53.30
2017-11-09T09:56:16.558Z,53.60
2017-11-09T09:58:44.633Z,52.70
2017-11-09T10:01:13.500Z,52.10
2017-11-09T10:03:41.571Z,51.90
2017-11-09T10:06:09.659Z,52.80
2017-11-09T10:08:37.725Z,53.00
2017-11-09T10:11:05.817Z,53.00
2017-11-09T10:13:34.674Z,52.20
2017-11-09T10:16:02.746Z,52.10
2017-11-09T10:18:30.838Z,52.40
2017-11-09T10:20:58.920Z,51.90
2017-11-09T10:23:27.002Z,52.00
2017-11-09T10:25:55.846Z,52.60
2017-11-09T10:28:23.930Z,52.50
2017-11-09T10:30:52.000Z,52.10
2017-11-09T10:33:21.013Z,52.50
2017-11-09T10:35:49.101Z,52.00
2017-11-09T10:38:17.202Z,52.70
2017-11-09T10:40:45.273Z,52.10
2017-11-09T10:43:13.349Z,52.10
2017-11-09T10:45:41.441Z,53.10
2017-11-09T10:48:10.286Z,52.90
2017-11-09T10:50:39.144Z,51.40
2017-11-09T10:53:07.216Z,51.30
2017-11-09T10:55:35.313Z,51.30
2017-11-09T10:58:03.424Z,52.30
2017-11-09T11:00:37.012Z,50.60
2017-11-09T11:03:05.892Z,50.40
2017-11-09T11:05:33.980Z,50.40
2017-11-09T11:08:02.088Z,50.40
2017-11-09T11:10:30.197Z,49.70
2017-11-09T11:12:58.268Z,49.80
2017-11-09T11:15:26.342Z,49.40
2017-11-09T11:17:54.430Z,49.30
2017-11-09T11:20:23.260Z,47.60
2017-11-09T11:22:51.353Z,47.50
2017-11-09T11:25:20.225Z,49.40
2017-11-09T11:27:48.313Z,49.00
2017-11-09T11:30:16.390Z,48.50
2017-11-09T11:32:44.478Z,49.10
2017-11-09T11:35:12.566Z,48.20
2017-11-09T11:37:40.640Z,49.90
2017-11-09T11:40:08.929Z,49.60
2017-11-09T11:42:37.777Z,48.10
2017-11-09T11:45:05.853Z,48.00
2017-11-09T11:47:33.943Z,48.40
2017-11-09T11:50:02.012Z,49.50
2017-11-09T11:52:30.093Z,49.20
2017-11-09T11:54:58.169Z,49.80
2017-11-09T11:57:26.236Z,48.60
2017-11-09T11:59:54.321Z,49.20
2017-11-09T12:02:23.175Z,49.20
2017-11-09T12:04:52.155Z,49.10
2017-11-09T12:07:20.233Z,49.80
2017-11-09T12:09:48.316Z,48.50
2017-11-09T12:12:16.395Z,48.20
2017-11-09T12:14:44.473Z,47.90
2017-11-09T12:17:12.558Z,48.90
2017-11-09T12:19:41.421Z,49.00
2017-11-09T12:22:09.527Z,48.90
2017-11-09T12:24:37.613Z,49.90
2017-11-09T12:27:06.456Z,48.90
2017-11-09T12:29:34.529Z,48.80
2017-11-09T12:32:02.609Z,48.10
2017-11-09T12:34:30.693Z,48.10
2017-11-09T12:36:58.793Z,47.70
2017-11-09T12:39:27.641Z,47.70
2017-11-09T12:41:55.728Z,47.60
2017-11-09T12:44:23.800Z,47.20
2017-11-09T12:46:51.897Z,47.00
2017-11-09T12:49:20.744Z,47.70
2017-11-09T12:51:48.825Z,47.60
2017-11-09T12:54:16.909Z,47.40
2017-11-09T12:56:44.981Z,47.70
2017-11-09T12:59:13.065Z,48.20
2017-11-09T13:01:41.137Z,47.90
2017-11-09T13:04:09.209Z,47.50
2017-11-09T13:06:37.293Z,48.10
2017-11-09T13:09:06.148Z,49.20
2017-11-09T13:11:34.236Z,49.20
2017-11-09T13:14:02.329Z,48.20
2017-11-09T13:16:31.181Z,47.40
2017-11-09T13:18:59.273Z,47.40
2017-11-09T13:21:27.357Z,47.80
2017-11-09T13:23:55.445Z,48.10
2017-11-09T13:26:24.285Z,48.00
2017-11-09T13:28:52.366Z,48.00
2017-11-09T13:31:20.450Z,48.00
2017-11-09T13:33:48.525Z,47.50
2017-11-09T13:36:16.612Z,47.70
2017-11-09T13:38:44.705Z,47.90
2017-11-09T13:41:13.560Z,48.20
2017-11-09T13:43:41.637Z,48.00
2017-11-09T13:46:09.722Z,47.20
2017-11-09T13:48:37.805Z,47.70
2017-11-09T13:51:06.658Z,48.00
2017-11-09T13:53:34.733Z,47.90
2017-11-09T13:56:02.841Z,49.50
2017-11-09T13:58:31.686Z,47.20
2017-11-09T14:00:59.766Z,47.10
2017-11-09T14:03:27.852Z,48.10
2017-11-09T14:05:55.929Z,48.30
2017-11-09T14:08:24.017Z,49.00
2017-11-09T14:10:52.872Z,47.80
2017-11-09T14:13:20.956Z,47.70
2017-11-09T14:15:49.039Z,47.60
2017-11-09T14:18:17.117Z,48.50
2017-11-09T14:20:45.193Z,48.80
2017-11-09T14:23:13.278Z,48.30
2017-11-09T14:25:42.120Z,51.60
2017-11-09T14:28:10.198Z,52.20
2017-11-09T14:30:38.272Z,50.00
2017-11-09T14:33:06.364Z,50.00
2017-11-09T14:35:34.433Z,49.20
2017-11-09T14:38:02.517Z,49.40
2017-11-09T14:40:30.593Z,49.90
2017-11-09T14:42:58.680Z,49.90
2017-11-09T14:45:27.524Z,49.80
2017-11-09T14:47:55.618Z,50.50
2017-11-09T14:50:23.690Z,50.80
2017-11-09T14:52:51.773Z,50.80
2017-11-09T14:55:19.845Z,51.20
2017-11-09T14:57:48.734Z,51.60
2017-11-09T15:00:16.812Z,51.40
2017-11-09T15:02:44.904Z,51.60
2017-11-09T15:05:13.741Z,50.90
2017-11-09T15:07:41.822Z,50.80
2017-11-09T15:10:09.897Z,50.10
2017-11-09T15:12:37.976Z,50.80
2017-11-09T15:15:06.054Z,49.90
2017-11-09T15:17:34.142Z,49.80
2017-11-09T15:20:02.995Z,49.80
2017-11-09T15:22:31.078Z,49.80
2017-11-09T15:24:59.165Z,49.80
2017-11-09T15:27:27.241Z,49.90
2017-11-09T15:29:55.315Z,49.80
2017-11-09T15:32:40.010Z,50.50
2017-11-09T15:35:11.049Z,50.90
2017-11-09T15:37:39.141Z,51.90
2017-11-09T15:40:07.215Z,51.60
2017-11-09T15:42:35.305Z,52.50
2017-11-09T15:45:03.387Z,52.70
2017-11-09T15:47:31.471Z,53.40
2017-11-09T15:49:59.583Z,53.70
2017-11-09T15:52:27.681Z,54.60
2017-11-09T15:54:56.531Z,56.00
2017-11-09T15:57:25.380Z,55.50
2017-11-09T15:59:53.456Z,55.50
2017-11-09T16:02:21.534Z,55.60
2017-11-09T16:04:49.622Z,60.50
2017-11-09T16:07:17.693Z,56.60
2017-11-09T16:09:45.781Z,56.50
2017-11-09T16:12:14.626Z,56.60
2017-11-09T16:14:42.709Z,56.40
2017-11-09T16:17:10.810Z,56.50
2017-11-09T16:19:38.889Z,56.60
2017-11-09T16:22:07.725Z,56.00
2017-11-09T16:24:35.805Z,55.80
2017-11-09T16:27:04.654Z,56.30
2017-11-09T16:29:33.506Z,56.80
2017-11-09T16:32:01.701Z,56.70
2017-11-09T16:34:29.782Z,56.80
2017-11-09T16:36:58.648Z,56.60
2017-11-09T16:39:26.720Z,56.60
2017-11-09T16:41:54.873Z,57.40
2017-11-09T16:44:23.753Z,58.20
2017-11-09T16:46:51.830Z,58.10
2017-11-09T16:49:20.680Z,70.60
2017-11-09T16:51:49.539Z,73.40
2017-11-09T16:54:17.621Z,73.30
2017-11-09T16:56:47.653Z,71.20
2017-11-09T16:59:15.769Z,66.30
2017-11-09T17:01:44.617Z,61.30
2017-11-09T17:04:13.457Z,59.00
2017-11-09T17:06:41.541Z,58.90
2017-11-09T17:09:09.612Z,59.80
2017-11-09T17:11:37.701Z,59.20
2017-11-09T17:14:05.777Z,60.00
2017-11-09T17:16:33.865Z,59.90
2017-11-09T17:19:01.945Z,59.70
2017-11-09T17:21:30.801Z,58.20
2017-11-09T17:23:58.873Z,58.10
2017-11-09T17:26:27.031Z,58.80
2017-11-09T17:28:55.864Z,58.20
2017-11-09T17:31:23.969Z,58.20
2017-11-09T17:33:52.054Z,57.80
2017-11-09T17:36:20.141Z,56.80
2017-11-09T17:38:48.221Z,56.80
2017-11-09T17:41:16.321Z,56.80
2017-11-09T17:43:50.362Z,58.00
2017-11-09T17:46:19.224Z,57.20
2017-11-09T17:48:47.330Z,57.00
2017-11-09T17:51:16.176Z,56.10
2017-11-09T17:53:44.261Z,56.00
2017-11-09T17:56:12.336Z,55.80
2017-11-09T17:58:40.451Z,55.10
2017-11-09T18:01:08.545Z,54.60
2017-11-09T18:03:36.673Z,54.50
2017-11-09T18:06:05.522Z,53.80
2017-11-09T18:08:33.623Z,53.70
2017-11-09T18:11:01.703Z,54.50
2017-11-09T18:13:29.814Z,53.50
2017-11-09T18:15:57.909Z,53.00
2017-11-09T18:18:25.988Z,52.90
2017-11-09T18:20:54.093Z,53.60
2017-11-09T18:23:25.849Z,52.80
2017-11-09T18:25:53.947Z,53.20
2017-11-09T18:28:22.783Z,51.90
2017-11-09T18:30:50.877Z,51.90
2017-11-09T18:33:18.965Z,52.20
2017-11-09T18:35:47.822Z,52.90
2017-11-09T18:38:15.913Z,52.90
2017-11-09T18:40:44.000Z,53.00
2017-11-09T18:43:12.073Z,53.20
2017-11-09T18:45:40.977Z,53.00
2017-11-09T18:48:09.826Z,52.50
2017-11-09T18:50:37.929Z,52.40
2017-11-09T18:53:06.017Z,51.30
2017-11-09T18:55:34.867Z,50.80
2017-11-09T18:58:02.963Z,50.70
2017-11-09T19:00:33.780Z,51.30
2017-11-09T19:03:01.870Z,51.30
2017-11-09T19:05:30.953Z,51.60
2017-11-09T19:07:59.037Z,51.00
2017-11-09T19:10:27.111Z,52.10
2017-11-09T19:12:55.196Z,50.80
2017-11-09T19:15:24.060Z,51.90
2017-11-09T19:17:52.169Z,51.90
2017-11-09T19:20:21.021Z,52.10
2017-11-09T19:22:49.108Z,52.00
2017-11-09T19:25:17.206Z,51.80
2017-11-09T19:27:46.085Z,52.60
2017-11-09T19:30:14.928Z,52.60
2017-11-09T19:32:43.023Z,52.50
2017-11-09T19:35:11.106Z,53.00
2017-11-09T19:37:39.180Z,53.20
2017-11-09T19:40:07.256Z,53.20
2017-11-09T19:42:35.346Z,53.90
2017-11-09T19:45:04.201Z,55.00
2017-11-09T19:47:32.282Z,54.80
2017-11-09T19:50:00.379Z,55.00
2017-11-09T19:52:29.229Z,54.70
2017-11-09T19:54:57.332Z,54.60
2017-11-09T19:57:25.404Z,55.00
2017-11-09T19:59:54.290Z,56.30
2017-11-09T20:02:22.370Z,56.10
2017-11-09T20:04:51.234Z,56.50
2017-11-09T20:07:19.328Z,56.50
2017-11-09T20:09:47.404Z,57.80
2017-11-09T20:12:15.493Z,57.80
2017-11-09T20:14:44.343Z,56.80
2017-11-09T20:17:12.427Z,56.80
2017-11-09T20:19:40.492Z,56.30
2017-11-09T20:22:08.573Z,56.60
2017-11-09T20:24:36.643Z,57.40
2017-11-09T20:27:04.730Z,57.70
2017-11-09T20:29:32.797Z,56.20
2017-11-09T20:32:00.872Z,57.50
2017-11-09T20:34:28.932Z,56.90
2017-11-09T20:36:57.030Z,57.20
2017-11-09T20:39:25.870Z,55.50
2017-11-09T20:41:54.703Z,55.40
2017-11-09T20:44:22.787Z,55.30
2017-11-09T20:46:51.615Z,54.80
2017-11-09T20:49:19.699Z,54.80
2017-11-09T20:51:47.772Z,54.30
2017-11-09T20:54:15.854Z,54.50
2017-11-09T20:56:43.941Z,54.40
2017-11-09T20:59:12.020Z,55.00
2017-11-09T21:01:40.097Z,54.10
2017-11-09T21:04:08.177Z,54.60
2017-11-09T21:06:37.021Z,54.70
2017-11-09T21:09:05.100Z,54.70
2017-11-09T21:11:33.176Z,55.00
2017-11-09T21:14:01.253Z,54.70
2017-11-09T21:16:29.320Z,55.00
2017-11-09T21:18:57.557Z,55.80
2017-11-09T21:21:25.631Z,55.40
2017-11-09T21:23:53.731Z,55.60
2017-11-09T21:26:21.799Z,55.20
2017-11-09T21:28:49.878Z,54.90
2017-11-09T21:31:17.962Z,55.30
2017-11-09T21:33:46.033Z,54.90
2017-11-09T21:36:14.124Z,53.90
2017-11-09T21:38:42.192Z,53.80
2017-11-09T21:41:10.278Z,54.00
2017-11-09T21:43:39.126Z,54.50
2017-11-09T21:46:07.194Z,54.40
2017-11-09T21:48:36.062Z,55.30
2017-11-09T21:51:11.467Z,55.10
2017-11-09T21:53:39.540Z,55.00
2017-11-09T21:56:07.631Z,55.30
2017-11-09T21:58:35.696Z,56.10
2017-11-09T22:01:03.775Z,55.60
2017-11-09T22:03:32.656Z,56.20
2017-11-09T22:06:00.706Z,56.20
2017-11-09T22:08:28.777Z,56.50
2017-11-09T22:10:56.865Z,56.60
2017-11-09T22:13:24.946Z,56.20
2017-11-09T22:15:53.020Z,56.10
2017-11-09T22:18:21.093Z,55.70
2017-11-09T22:20:49.177Z,56.10
2017-11-09T22:23:18.100Z,56.10
2017-11-09T22:25:46.186Z,56.10
2017-11-09T22:28:15.020Z,56.90
2017-11-09T22:30:43.104Z,56.90
2017-11-09T22:33:11.959Z,56.90
2017-11-09T22:35:40.038Z,56.80
2017-11-09T22:38:08.112Z,57.10
2017-11-09T22:40:36.199Z,57.20
2017-11-09T22:43:04.286Z,56.50
2017-11-09T22:45:33.137Z,55.90
2017-11-09T22:48:01.207Z,55.90
2017-11-09T22:50:29.285Z,55.80
2017-11-09T22:52:57.369Z,56.20
2017-11-09T22:55:25.591Z,55.20
2017-11-09T22:57:53.669Z,54.70
2017-11-09T23:00:21.765Z,55.00
2017-11-09T23:02:49.924Z,54.60
2017-11-09T23:05:17.999Z,54.50
2017-11-09T23:07:46.089Z,54.90
2017-11-09T23:10:14.225Z,54.90
2017-11-09T23:12:42.320Z,55.10
2017-11-09T23:15:10.410Z,55.40
2017-11-09T23:17:38.497Z,55.50
2017-11-09T23:22:40.055Z,55.00
2017-11-09T23:25:08.310Z,55.10
2017-11-09T23:27:36.385Z,54.80
2017-11-09T23:30:04.470Z,54.20
2017-11-09T23:32:32.707Z,54.90
2017-11-09T23:35:00.783Z,55.30
2017-11-09T23:37:29.628Z,55.20
2017-11-09T23:39:57.714Z,55.10
2017-11-09T23:42:25.798Z,54.40
2017-11-09T23:44:54.661Z,55.00
2017-11-09T23:47:22.754Z,54.90
2017-11-09T23:49:50.847Z,54.70
2017-11-09T23:52:19.692Z,54.70
2017-11-09T23:54:47.769Z,54.60
2017-11-09T23:57:15.872Z,54.60
2017-11-09T23:59:43.942Z,54.30
